sensor_id;sensor_type;location;lat;lon;timestamp;P1;durP1;ratioP1;P2;durP2;ratioP2
71312;SDS011;59104;44.738;20.612;2022-07-17T00:00:20;2.25;;;1.60;;
71312;SDS011;59104;44.738;20.612;2022-07-17T00:02:46;2.35;;;1.60;;
71312;SDS011;59104;44.738;20.612;2022-07-17T00:05:13;2.35;;;1.40;;
71312;SDS011;59104;44.738;20.612;2022-07-17T00:07:39;2.50;;;1.25;;
71312;SDS011;59104;44.738;20.612;2022-07-17T00:10:05;2.35;;;1.67;;
71312;SDS011;59104;44.738;20.612;2022-07-17T00:12:31;1.58;;;1.30;;
71312;SDS011;59104;44.738;20.612;2022-07-17T00:14:57;2.42;;;1.80;;
71312;SDS011;59104;44.738;20.612;2022-07-17T00:17:23;1.30;;;1.20;;
71312;SDS011;59104;44.738;20.612;2022-07-17T00:19:49;1.63;;;1.23;;
71312;SDS011;59104;44.738;20.612;2022-07-17T00:22:14;1.35;;;1.23;;
71312;SDS011;59104;44.738;20.612;2022-07-17T00:24:40;1.67;;;1.15;;
71312;SDS011;59104;44.738;20.612;2022-07-17T00:27:06;1.48;;;1.38;;
71312;SDS011;59104;44.738;20.612;2022-07-17T00:29:32;1.50;;;1.33;;
71312;SDS011;59104;44.738;20.612;2022-07-17T00:31:58;1.52;;;1.30;;
71312;SDS011;59104;44.738;20.612;2022-07-17T00:34:23;2.10;;;1.17;;
71312;SDS011;59104;44.738;20.612;2022-07-17T00:36:49;1.75;;;1.25;;
71312;SDS011;59104;44.738;20.612;2022-07-17T00:39:14;1.70;;;1.42;;
71312;SDS011;59104;44.738;20.612;2022-07-17T00:41:40;2.03;;;1.42;;
71312;SDS011;59104;44.738;20.612;2022-07-17T00:44:09;2.13;;;1.40;;
71312;SDS011;59104;44.738;20.612;2022-07-17T00:46:37;2.38;;;1.73;;
71312;SDS011;59104;44.738;20.612;2022-07-17T00:49:03;1.63;;;1.48;;
71312;SDS011;59104;44.738;20.612;2022-07-17T00:51:30;1.63;;;1.33;;
71312;SDS011;59104;44.738;20.612;2022-07-17T00:53:57;1.98;;;1.60;;
71312;SDS011;59104;44.738;20.612;2022-07-17T00:56:24;1.83;;;1.50;;
71312;SDS011;59104;44.738;20.612;2022-07-17T00:58:50;1.77;;;1.60;;
71312;SDS011;59104;44.738;20.612;2022-07-17T01:01:16;1.95;;;1.40;;
71312;SDS011;59104;44.738;20.612;2022-07-17T01:03:43;1.65;;;1.33;;
71312;SDS011;59104;44.738;20.612;2022-07-17T01:06:08;1.95;;;1.70;;
71312;SDS011;59104;44.738;20.612;2022-07-17T01:08:35;1.42;;;1.10;;
71312;SDS011;59104;44.738;20.612;2022-07-17T01:11:01;1.67;;;1.50;;
71312;SDS011;59104;44.738;20.612;2022-07-17T01:13:28;2.03;;;1.50;;
71312;SDS011;59104;44.738;20.612;2022-07-17T01:15:55;1.50;;;1.25;;
71312;SDS011;59104;44.738;20.612;2022-07-17T01:18:22;1.67;;;1.23;;
71312;SDS011;59104;44.738;20.612;2022-07-17T01:20:48;1.13;;;0.95;;
71312;SDS011;59104;44.738;20.612;2022-07-17T01:23:16;2.53;;;1.40;;
71312;SDS011;59104;44.738;20.612;2022-07-17T01:25:42;1.48;;;1.30;;
71312;SDS011;59104;44.738;20.612;2022-07-17T01:28:09;1.52;;;1.30;;
71312;SDS011;59104;44.738;20.612;2022-07-17T01:30:35;1.40;;;1.30;;
71312;SDS011;59104;44.738;20.612;2022-07-17T01:33:01;2.63;;;1.73;;
71312;SDS011;59104;44.738;20.612;2022-07-17T01:35:27;1.67;;;1.30;;
71312;SDS011;59104;44.738;20.612;2022-07-17T01:37:52;1.75;;;1.55;;
71312;SDS011;59104;44.738;20.612;2022-07-17T01:40:18;1.45;;;1.30;;
71312;SDS011;59104;44.738;20.612;2022-07-17T01:42:45;1.48;;;1.38;;
71312;SDS011;59104;44.738;20.612;2022-07-17T01:45:12;1.73;;;1.10;;
71312;SDS011;59104;44.738;20.612;2022-07-17T01:47:39;2.33;;;1.55;;
71312;SDS011;59104;44.738;20.612;2022-07-17T01:50:05;1.50;;;1.30;;
71312;SDS011;59104;44.738;20.612;2022-07-17T01:52:34;1.38;;;1.27;;
71312;SDS011;59104;44.738;20.612;2022-07-17T01:55:00;2.15;;;1.33;;
71312;SDS011;59104;44.738;20.612;2022-07-17T01:57:26;2.30;;;1.27;;
71312;SDS011;59104;44.738;20.612;2022-07-17T01:59:51;1.35;;;1.08;;
71312;SDS011;59104;44.738;20.612;2022-07-17T02:02:17;1.65;;;1.23;;
71312;SDS011;59104;44.738;20.612;2022-07-17T02:04:43;1.23;;;1.13;;
71312;SDS011;59104;44.738;20.612;2022-07-17T02:07:09;1.88;;;1.23;;
71312;SDS011;59104;44.738;20.612;2022-07-17T02:09:35;2.25;;;1.48;;
71312;SDS011;59104;44.738;20.612;2022-07-17T02:12:01;1.20;;;1.10;;
71312;SDS011;59104;44.738;20.612;2022-07-17T02:14:27;1.38;;;1.20;;
71312;SDS011;59104;44.738;20.612;2022-07-17T02:16:53;1.42;;;1.27;;
71312;SDS011;59104;44.738;20.612;2022-07-17T02:19:18;1.77;;;1.42;;
71312;SDS011;59104;44.738;20.612;2022-07-17T02:21:45;2.10;;;1.40;;
71312;SDS011;59104;44.738;20.612;2022-07-17T02:24:10;1.73;;;1.30;;
71312;SDS011;59104;44.738;20.612;2022-07-17T02:26:36;1.40;;;1.20;;
71312;SDS011;59104;44.738;20.612;2022-07-17T02:29:02;1.67;;;1.40;;
71312;SDS011;59104;44.738;20.612;2022-07-17T02:31:27;1.30;;;1.20;;
71312;SDS011;59104;44.738;20.612;2022-07-17T02:33:53;1.52;;;1.30;;
71312;SDS011;59104;44.738;20.612;2022-07-17T02:36:19;2.10;;;1.52;;
71312;SDS011;59104;44.738;20.612;2022-07-17T02:38:44;2.08;;;1.50;;
71312;SDS011;59104;44.738;20.612;2022-07-17T02:41:10;1.15;;;1.05;;
71312;SDS011;59104;44.738;20.612;2022-07-17T02:43:35;2.10;;;1.48;;
71312;SDS011;59104;44.738;20.612;2022-07-17T02:46:02;1.60;;;1.40;;
71312;SDS011;59104;44.738;20.612;2022-07-17T02:48:28;1.55;;;1.33;;
71312;SDS011;59104;44.738;20.612;2022-07-17T02:50:53;1.65;;;1.40;;
71312;SDS011;59104;44.738;20.612;2022-07-17T02:53:19;1.95;;;1.60;;
71312;SDS011;59104;44.738;20.612;2022-07-17T02:55:45;2.13;;;1.58;;
71312;SDS011;59104;44.738;20.612;2022-07-17T02:58:11;2.25;;;1.80;;
71312;SDS011;59104;44.738;20.612;2022-07-17T03:00:37;2.75;;;1.70;;
71312;SDS011;59104;44.738;20.612;2022-07-17T03:03:03;1.75;;;1.65;;
71312;SDS011;59104;44.738;20.612;2022-07-17T03:05:29;2.50;;;1.63;;
71312;SDS011;59104;44.738;20.612;2022-07-17T03:07:54;2.67;;;1.63;;
71312;SDS011;59104;44.738;20.612;2022-07-17T03:10:20;3.67;;;2.25;;
71312;SDS011;59104;44.738;20.612;2022-07-17T03:12:45;3.40;;;2.10;;
71312;SDS011;59104;44.738;20.612;2022-07-17T03:15:11;3.65;;;2.60;;
71312;SDS011;59104;44.738;20.612;2022-07-17T03:17:40;3.40;;;1.92;;
71312;SDS011;59104;44.738;20.612;2022-07-17T03:20:07;2.65;;;2.03;;
71312;SDS011;59104;44.738;20.612;2022-07-17T03:22:33;2.17;;;1.73;;
71312;SDS011;59104;44.738;20.612;2022-07-17T03:24:59;2.67;;;1.90;;
71312;SDS011;59104;44.738;20.612;2022-07-17T03:27:24;2.92;;;1.60;;
71312;SDS011;59104;44.738;20.612;2022-07-17T03:29:50;3.28;;;2.25;;
71312;SDS011;59104;44.738;20.612;2022-07-17T03:32:17;5.05;;;2.70;;
71312;SDS011;59104;44.738;20.612;2022-07-17T03:34:42;5.57;;;2.97;;
71312;SDS011;59104;44.738;20.612;2022-07-17T03:37:08;4.97;;;3.05;;
71312;SDS011;59104;44.738;20.612;2022-07-17T03:39:34;8.07;;;3.95;;
71312;SDS011;59104;44.738;20.612;2022-07-17T03:41:59;4.65;;;2.83;;
71312;SDS011;59104;44.738;20.612;2022-07-17T03:44:25;2.83;;;2.50;;
71312;SDS011;59104;44.738;20.612;2022-07-17T03:46:51;5.47;;;2.75;;
71312;SDS011;59104;44.738;20.612;2022-07-17T03:49:17;3.58;;;2.42;;
71312;SDS011;59104;44.738;20.612;2022-07-17T03:51:42;3.50;;;2.40;;
71312;SDS011;59104;44.738;20.612;2022-07-17T03:54:08;3.17;;;2.40;;
71312;SDS011;59104;44.738;20.612;2022-07-17T03:56:33;3.35;;;2.22;;
71312;SDS011;59104;44.738;20.612;2022-07-17T03:59:00;4.45;;;2.25;;
71312;SDS011;59104;44.738;20.612;2022-07-17T04:01:26;3.35;;;2.22;;
71312;SDS011;59104;44.738;20.612;2022-07-17T04:03:51;3.17;;;2.22;;
71312;SDS011;59104;44.738;20.612;2022-07-17T04:06:17;2.13;;;1.80;;
71312;SDS011;59104;44.738;20.612;2022-07-17T04:08:42;2.38;;;1.80;;
71312;SDS011;59104;44.738;20.612;2022-07-17T04:11:08;2.47;;;2.03;;
71312;SDS011;59104;44.738;20.612;2022-07-17T04:13:34;4.82;;;2.50;;
71312;SDS011;59104;44.738;20.612;2022-07-17T04:16:00;4.07;;;2.55;;
71312;SDS011;59104;44.738;20.612;2022-07-17T04:18:29;3.22;;;2.40;;
71312;SDS011;59104;44.738;20.612;2022-07-17T04:20:58;3.95;;;2.70;;
71312;SDS011;59104;44.738;20.612;2022-07-17T04:23:28;3.42;;;2.83;;
71312;SDS011;59104;44.738;20.612;2022-07-17T04:25:54;3.33;;;2.42;;
71312;SDS011;59104;44.738;20.612;2022-07-17T04:28:21;3.22;;;2.17;;
71312;SDS011;59104;44.738;20.612;2022-07-17T04:30:47;2.80;;;2.03;;
71312;SDS011;59104;44.738;20.612;2022-07-17T04:33:13;2.63;;;2.00;;
71312;SDS011;59104;44.738;20.612;2022-07-17T04:35:40;2.35;;;2.08;;
71312;SDS011;59104;44.738;20.612;2022-07-17T04:38:06;4.28;;;2.13;;
71312;SDS011;59104;44.738;20.612;2022-07-17T04:40:33;3.33;;;1.95;;
71312;SDS011;59104;44.738;20.612;2022-07-17T04:43:00;2.72;;;1.92;;
71312;SDS011;59104;44.738;20.612;2022-07-17T04:45:26;3.72;;;2.00;;
71312;SDS011;59104;44.738;20.612;2022-07-17T04:47:51;2.78;;;2.03;;
71312;SDS011;59104;44.738;20.612;2022-07-17T04:50:17;3.30;;;2.10;;
71312;SDS011;59104;44.738;20.612;2022-07-17T04:52:43;3.17;;;2.03;;
71312;SDS011;59104;44.738;20.612;2022-07-17T04:55:08;3.10;;;1.75;;
71312;SDS011;59104;44.738;20.612;2022-07-17T04:57:34;2.83;;;1.65;;
71312;SDS011;59104;44.738;20.612;2022-07-17T05:00:00;3.17;;;1.98;;
71312;SDS011;59104;44.738;20.612;2022-07-17T05:02:27;2.92;;;2.05;;
71312;SDS011;59104;44.738;20.612;2022-07-17T05:04:52;2.35;;;2.10;;
71312;SDS011;59104;44.738;20.612;2022-07-17T05:07:18;2.25;;;1.88;;
71312;SDS011;59104;44.738;20.612;2022-07-17T05:09:44;4.47;;;2.38;;
71312;SDS011;59104;44.738;20.612;2022-07-17T05:12:09;2.00;;;1.75;;
71312;SDS011;59104;44.738;20.612;2022-07-17T05:14:35;4.55;;;2.97;;
71312;SDS011;59104;44.738;20.612;2022-07-17T05:17:00;3.15;;;2.33;;
71312;SDS011;59104;44.738;20.612;2022-07-17T05:19:27;4.05;;;2.65;;
71312;SDS011;59104;44.738;20.612;2022-07-17T05:21:52;2.20;;;2.00;;
71312;SDS011;59104;44.738;20.612;2022-07-17T05:24:18;3.33;;;2.53;;
71312;SDS011;59104;44.738;20.612;2022-07-17T05:26:44;2.88;;;2.40;;
71312;SDS011;59104;44.738;20.612;2022-07-17T05:29:09;3.03;;;2.63;;
71312;SDS011;59104;44.738;20.612;2022-07-17T05:31:35;2.38;;;1.90;;
71312;SDS011;59104;44.738;20.612;2022-07-17T05:34:00;4.53;;;2.38;;
71312;SDS011;59104;44.738;20.612;2022-07-17T05:36:26;2.97;;;2.60;;
71312;SDS011;59104;44.738;20.612;2022-07-17T05:38:52;4.57;;;2.38;;
71312;SDS011;59104;44.738;20.612;2022-07-17T05:41:17;4.45;;;2.42;;
71312;SDS011;59104;44.738;20.612;2022-07-17T05:43:43;3.72;;;2.10;;
71312;SDS011;59104;44.738;20.612;2022-07-17T05:46:09;3.95;;;2.58;;
71312;SDS011;59104;44.738;20.612;2022-07-17T05:48:35;3.22;;;2.38;;
71312;SDS011;59104;44.738;20.612;2022-07-17T05:51:00;2.60;;;2.35;;
71312;SDS011;59104;44.738;20.612;2022-07-17T05:53:26;2.90;;;2.20;;
71312;SDS011;59104;44.738;20.612;2022-07-17T05:55:52;3.00;;;2.50;;
71312;SDS011;59104;44.738;20.612;2022-07-17T05:58:17;3.13;;;2.40;;
71312;SDS011;59104;44.738;20.612;2022-07-17T06:00:44;2.95;;;2.28;;
71312;SDS011;59104;44.738;20.612;2022-07-17T06:03:10;4.72;;;2.63;;
71312;SDS011;59104;44.738;20.612;2022-07-17T06:05:36;3.30;;;2.38;;
71312;SDS011;59104;44.738;20.612;2022-07-17T06:08:02;2.45;;;2.10;;
71312;SDS011;59104;44.738;20.612;2022-07-17T06:10:28;3.28;;;2.42;;
71312;SDS011;59104;44.738;20.612;2022-07-17T06:12:54;4.57;;;2.63;;
71312;SDS011;59104;44.738;20.612;2022-07-17T06:15:21;4.25;;;2.33;;
71312;SDS011;59104;44.738;20.612;2022-07-17T06:17:48;3.65;;;2.28;;
71312;SDS011;59104;44.738;20.612;2022-07-17T06:20:15;3.83;;;2.28;;
71312;SDS011;59104;44.738;20.612;2022-07-17T06:22:41;3.15;;;2.20;;
71312;SDS011;59104;44.738;20.612;2022-07-17T06:25:08;3.60;;;2.60;;
71312;SDS011;59104;44.738;20.612;2022-07-17T06:27:34;4.03;;;2.70;;
71312;SDS011;59104;44.738;20.612;2022-07-17T06:30:00;2.75;;;2.50;;
71312;SDS011;59104;44.738;20.612;2022-07-17T06:32:26;2.90;;;2.35;;
71312;SDS011;59104;44.738;20.612;2022-07-17T06:34:52;2.67;;;2.35;;
71312;SDS011;59104;44.738;20.612;2022-07-17T06:37:18;3.88;;;2.60;;
71312;SDS011;59104;44.738;20.612;2022-07-17T06:39:43;3.03;;;2.10;;
71312;SDS011;59104;44.738;20.612;2022-07-17T06:42:09;3.65;;;2.40;;
71312;SDS011;59104;44.738;20.612;2022-07-17T06:44:36;2.78;;;2.30;;
71312;SDS011;59104;44.738;20.612;2022-07-17T06:47:02;2.13;;;1.92;;
71312;SDS011;59104;44.738;20.612;2022-07-17T06:49:28;3.90;;;2.03;;
71312;SDS011;59104;44.738;20.612;2022-07-17T06:51:53;3.70;;;2.20;;
71312;SDS011;59104;44.738;20.612;2022-07-17T06:54:19;2.55;;;2.15;;
71312;SDS011;59104;44.738;20.612;2022-07-17T06:56:48;4.63;;;2.83;;
71312;SDS011;59104;44.738;20.612;2022-07-17T06:59:14;3.47;;;2.35;;
71312;SDS011;59104;44.738;20.612;2022-07-17T07:01:40;3.30;;;2.30;;
71312;SDS011;59104;44.738;20.612;2022-07-17T07:04:06;2.47;;;1.90;;
71312;SDS011;59104;44.738;20.612;2022-07-17T07:06:31;3.33;;;2.08;;
71312;SDS011;59104;44.738;20.612;2022-07-17T07:08:57;2.28;;;1.95;;
71312;SDS011;59104;44.738;20.612;2022-07-17T07:11:23;2.67;;;2.05;;
71312;SDS011;59104;44.738;20.612;2022-07-17T07:13:49;2.45;;;1.75;;
71312;SDS011;59104;44.738;20.612;2022-07-17T07:16:15;3.70;;;2.10;;
71312;SDS011;59104;44.738;20.612;2022-07-17T07:18:41;2.80;;;2.20;;
71312;SDS011;59104;44.738;20.612;2022-07-17T07:21:07;2.65;;;2.00;;
71312;SDS011;59104;44.738;20.612;2022-07-17T07:23:33;2.60;;;1.98;;
71312;SDS011;59104;44.738;20.612;2022-07-17T07:25:59;2.05;;;1.63;;
71312;SDS011;59104;44.738;20.612;2022-07-17T07:28:24;2.03;;;1.90;;
71312;SDS011;59104;44.738;20.612;2022-07-17T07:30:50;3.25;;;2.03;;
71312;SDS011;59104;44.738;20.612;2022-07-17T07:33:15;2.13;;;1.88;;
71312;SDS011;59104;44.738;20.612;2022-07-17T07:35:41;3.97;;;2.50;;
71312;SDS011;59104;44.738;20.612;2022-07-17T07:38:07;4.30;;;2.10;;
71312;SDS011;59104;44.738;20.612;2022-07-17T07:40:33;2.28;;;1.85;;
71312;SDS011;59104;44.738;20.612;2022-07-17T07:42:59;3.40;;;2.40;;
71312;SDS011;59104;44.738;20.612;2022-07-17T07:45:25;3.00;;;2.00;;
71312;SDS011;59104;44.738;20.612;2022-07-17T07:47:51;2.72;;;2.03;;
71312;SDS011;59104;44.738;20.612;2022-07-17T07:50:18;3.00;;;2.15;;
71312;SDS011;59104;44.738;20.612;2022-07-17T07:52:44;2.35;;;1.80;;
71312;SDS011;59104;44.738;20.612;2022-07-17T07:55:10;3.15;;;1.90;;
71312;SDS011;59104;44.738;20.612;2022-07-17T07:57:37;3.25;;;1.80;;
71312;SDS011;59104;44.738;20.612;2022-07-17T08:00:03;2.92;;;2.05;;
71312;SDS011;59104;44.738;20.612;2022-07-17T08:02:37;2.28;;;2.00;;
71312;SDS011;59104;44.738;20.612;2022-07-17T08:05:03;2.47;;;2.00;;
71312;SDS011;59104;44.738;20.612;2022-07-17T08:07:30;3.53;;;2.10;;
71312;SDS011;59104;44.738;20.612;2022-07-17T08:09:56;3.13;;;1.77;;
71312;SDS011;59104;44.738;20.612;2022-07-17T08:12:23;3.25;;;1.92;;
71312;SDS011;59104;44.738;20.612;2022-07-17T08:14:50;3.95;;;2.05;;
71312;SDS011;59104;44.738;20.612;2022-07-17T08:17:16;2.83;;;2.00;;
71312;SDS011;59104;44.738;20.612;2022-07-17T08:19:41;4.20;;;2.00;;
71312;SDS011;59104;44.738;20.612;2022-07-17T08:22:07;2.65;;;1.60;;
71312;SDS011;59104;44.738;20.612;2022-07-17T08:24:33;3.10;;;1.90;;
71312;SDS011;59104;44.738;20.612;2022-07-17T08:26:58;5.10;;;2.20;;
71312;SDS011;59104;44.738;20.612;2022-07-17T08:29:24;2.22;;;2.03;;
71312;SDS011;59104;44.738;20.612;2022-07-17T08:31:49;2.60;;;2.10;;
71312;SDS011;59104;44.738;20.612;2022-07-17T08:34:15;2.63;;;2.13;;
71312;SDS011;59104;44.738;20.612;2022-07-17T08:36:41;2.08;;;1.88;;
71312;SDS011;59104;44.738;20.612;2022-07-17T08:39:07;2.28;;;1.80;;
71312;SDS011;59104;44.738;20.612;2022-07-17T08:41:36;2.78;;;2.00;;
71312;SDS011;59104;44.738;20.612;2022-07-17T08:44:03;3.03;;;2.00;;
71312;SDS011;59104;44.738;20.612;2022-07-17T08:46:34;2.00;;;1.70;;
71312;SDS011;59104;44.738;20.612;2022-07-17T08:49:02;3.92;;;1.95;;
71312;SDS011;59104;44.738;20.612;2022-07-17T08:51:29;3.40;;;1.80;;
71312;SDS011;59104;44.738;20.612;2022-07-17T08:53:55;4.43;;;1.85;;
71312;SDS011;59104;44.738;20.612;2022-07-17T08:56:22;2.50;;;1.60;;
71312;SDS011;59104;44.738;20.612;2022-07-17T08:58:48;2.10;;;1.65;;
71312;SDS011;59104;44.738;20.612;2022-07-17T09:01:14;1.98;;;1.45;;
71312;SDS011;59104;44.738;20.612;2022-07-17T09:03:52;1.55;;;1.30;;
71312;SDS011;59104;44.738;20.612;2022-07-17T09:06:26;3.17;;;1.45;;
71312;SDS011;59104;44.738;20.612;2022-07-17T09:09:11;1.80;;;1.50;;
71312;SDS011;59104;44.738;20.612;2022-07-17T09:11:46;1.38;;;1.10;;
71312;SDS011;59104;44.738;20.612;2022-07-17T09:14:16;2.38;;;1.48;;
71312;SDS011;59104;44.738;20.612;2022-07-17T09:16:56;2.30;;;1.50;;
71312;SDS011;59104;44.738;20.612;2022-07-17T09:24:40;1.52;;;1.20;;
71312;SDS011;59104;44.738;20.612;2022-07-17T09:29:55;2.50;;;1.92;;
71312;SDS011;59104;44.738;20.612;2022-07-17T09:32:22;3.08;;;1.40;;
71312;SDS011;59104;44.738;20.612;2022-07-17T09:34:50;1.42;;;1.20;;
71312;SDS011;59104;44.738;20.612;2022-07-17T09:37:17;3.30;;;1.35;;
71312;SDS011;59104;44.738;20.612;2022-07-17T09:39:43;1.23;;;1.13;;
71312;SDS011;59104;44.738;20.612;2022-07-17T09:42:09;1.55;;;1.05;;
71312;SDS011;59104;44.738;20.612;2022-07-17T09:47:26;0.98;;;0.93;;
71312;SDS011;59104;44.738;20.612;2022-07-17T09:49:53;1.58;;;1.30;;
71312;SDS011;59104;44.738;20.612;2022-07-17T09:52:21;2.75;;;1.40;;
71312;SDS011;59104;44.738;20.612;2022-07-17T09:54:48;5.93;;;1.35;;
71312;SDS011;59104;44.738;20.612;2022-07-17T09:57:18;5.13;;;1.15;;
71312;SDS011;59104;44.738;20.612;2022-07-17T09:59:45;2.22;;;1.50;;
71312;SDS011;59104;44.738;20.612;2022-07-17T10:02:12;1.98;;;1.20;;
71312;SDS011;59104;44.738;20.612;2022-07-17T10:04:39;2.38;;;1.50;;
71312;SDS011;59104;44.738;20.612;2022-07-17T10:07:05;1.58;;;1.30;;
71312;SDS011;59104;44.738;20.612;2022-07-17T10:09:34;1.90;;;1.40;;
71312;SDS011;59104;44.738;20.612;2022-07-17T10:12:00;1.52;;;1.42;;
71312;SDS011;59104;44.738;20.612;2022-07-17T10:14:26;1.95;;;1.63;;
71312;SDS011;59104;44.738;20.612;2022-07-17T10:16:52;1.40;;;1.27;;
71312;SDS011;59104;44.738;20.612;2022-07-17T10:21:55;3.25;;;2.15;;
71312;SDS011;59104;44.738;20.612;2022-07-17T10:24:22;3.17;;;1.55;;
71312;SDS011;59104;44.738;20.612;2022-07-17T10:26:48;3.63;;;1.42;;
71312;SDS011;59104;44.738;20.612;2022-07-17T10:32:08;1.60;;;1.20;;
71312;SDS011;59104;44.738;20.612;2022-07-17T10:34:42;3.17;;;1.33;;
71312;SDS011;59104;44.738;20.612;2022-07-17T10:37:18;5.10;;;1.55;;
71312;SDS011;59104;44.738;20.612;2022-07-17T10:39:53;2.70;;;1.45;;
71312;SDS011;59104;44.738;20.612;2022-07-17T10:47:54;3.13;;;1.58;;
71312;SDS011;59104;44.738;20.612;2022-07-17T10:50:25;9.57;;;5.30;;
71312;SDS011;59104;44.738;20.612;2022-07-17T10:53:02;9.52;;;5.82;;
71312;SDS011;59104;44.738;20.612;2022-07-17T10:55:30;4.93;;;2.50;;
71312;SDS011;59104;44.738;20.612;2022-07-17T10:57:56;5.05;;;2.92;;
71312;SDS011;59104;44.738;20.612;2022-07-17T11:00:23;3.55;;;1.67;;
71312;SDS011;59104;44.738;20.612;2022-07-17T11:02:48;2.72;;;1.48;;
71312;SDS011;59104;44.738;20.612;2022-07-17T11:05:14;1.98;;;1.20;;
71312;SDS011;59104;44.738;20.612;2022-07-17T11:07:50;1.70;;;1.40;;
71312;SDS011;59104;44.738;20.612;2022-07-17T11:10:18;2.15;;;1.33;;
71312;SDS011;59104;44.738;20.612;2022-07-17T11:12:43;5.13;;;1.90;;
71312;SDS011;59104;44.738;20.612;2022-07-17T11:15:09;4.22;;;1.38;;
71312;SDS011;59104;44.738;20.612;2022-07-17T11:17:35;2.65;;;1.60;;
71312;SDS011;59104;44.738;20.612;2022-07-17T11:20:02;2.22;;;1.40;;
71312;SDS011;59104;44.738;20.612;2022-07-17T11:22:29;2.80;;;1.05;;
71312;SDS011;59104;44.738;20.612;2022-07-17T11:24:54;1.27;;;1.17;;
71312;SDS011;59104;44.738;20.612;2022-07-17T11:27:27;2.45;;;1.20;;
71312;SDS011;59104;44.738;20.612;2022-07-17T11:29:56;1.08;;;0.98;;
71312;SDS011;59104;44.738;20.612;2022-07-17T11:32:24;1.38;;;1.00;;
71312;SDS011;59104;44.738;20.612;2022-07-17T11:34:56;1.90;;;1.27;;
71312;SDS011;59104;44.738;20.612;2022-07-17T11:37:22;2.70;;;1.20;;
71312;SDS011;59104;44.738;20.612;2022-07-17T11:39:49;1.52;;;1.10;;
71312;SDS011;59104;44.738;20.612;2022-07-17T11:42:15;1.92;;;1.45;;
71312;SDS011;59104;44.738;20.612;2022-07-17T11:44:46;3.35;;;1.40;;
71312;SDS011;59104;44.738;20.612;2022-07-17T11:47:19;1.63;;;1.13;;
71312;SDS011;59104;44.738;20.612;2022-07-17T11:49:49;2.03;;;1.20;;
71312;SDS011;59104;44.738;20.612;2022-07-17T11:52:19;2.13;;;1.50;;
71312;SDS011;59104;44.738;20.612;2022-07-17T11:54:48;1.20;;;1.10;;
71312;SDS011;59104;44.738;20.612;2022-07-17T11:57:15;2.75;;;1.13;;
71312;SDS011;59104;44.738;20.612;2022-07-17T11:59:42;2.65;;;1.10;;
71312;SDS011;59104;44.738;20.612;2022-07-17T12:02:09;1.92;;;1.10;;
71312;SDS011;59104;44.738;20.612;2022-07-17T12:04:47;2.20;;;1.13;;
71312;SDS011;59104;44.738;20.612;2022-07-17T12:07:17;1.73;;;1.33;;
71312;SDS011;59104;44.738;20.612;2022-07-17T12:09:43;2.75;;;1.60;;
71312;SDS011;59104;44.738;20.612;2022-07-17T12:12:19;3.20;;;1.33;;
71312;SDS011;59104;44.738;20.612;2022-07-17T12:14:46;1.38;;;1.23;;
71312;SDS011;59104;44.738;20.612;2022-07-17T12:17:16;3.13;;;1.30;;
71312;SDS011;59104;44.738;20.612;2022-07-17T12:19:42;2.47;;;1.20;;
71312;SDS011;59104;44.738;20.612;2022-07-17T12:22:07;1.42;;;0.82;;
71312;SDS011;59104;44.738;20.612;2022-07-17T12:24:40;1.60;;;1.40;;
71312;SDS011;59104;44.738;20.612;2022-07-17T12:27:11;3.13;;;1.48;;
71312;SDS011;59104;44.738;20.612;2022-07-17T12:29:38;1.27;;;1.17;;
71312;SDS011;59104;44.738;20.612;2022-07-17T12:34:34;3.05;;;1.42;;
71312;SDS011;59104;44.738;20.612;2022-07-17T12:37:00;1.73;;;1.15;;
71312;SDS011;59104;44.738;20.612;2022-07-17T12:39:26;5.18;;;1.23;;
71312;SDS011;59104;44.738;20.612;2022-07-17T12:41:51;1.58;;;1.30;;
71312;SDS011;59104;44.738;20.612;2022-07-17T12:44:17;2.63;;;1.10;;
71312;SDS011;59104;44.738;20.612;2022-07-17T12:46:43;1.20;;;1.10;;
71312;SDS011;59104;44.738;20.612;2022-07-17T12:49:09;2.40;;;1.30;;
71312;SDS011;59104;44.738;20.612;2022-07-17T12:51:34;2.28;;;1.40;;
71312;SDS011;59104;44.738;20.612;2022-07-17T12:54:00;1.65;;;1.23;;
71312;SDS011;59104;44.738;20.612;2022-07-17T12:56:26;1.95;;;1.40;;
71312;SDS011;59104;44.738;20.612;2022-07-17T12:58:52;4.93;;;1.38;;
71312;SDS011;59104;44.738;20.612;2022-07-17T13:01:18;2.58;;;1.45;;
71312;SDS011;59104;44.738;20.612;2022-07-17T13:03:44;1.58;;;1.20;;
71312;SDS011;59104;44.738;20.612;2022-07-17T13:06:11;1.38;;;1.23;;
71312;SDS011;59104;44.738;20.612;2022-07-17T13:08:39;2.10;;;1.30;;
71312;SDS011;59104;44.738;20.612;2022-07-17T13:11:05;1.55;;;1.25;;
71312;SDS011;59104;44.738;20.612;2022-07-17T13:13:31;1.52;;;1.20;;
71312;SDS011;59104;44.738;20.612;2022-07-17T13:15:57;2.47;;;1.30;;
71312;SDS011;59104;44.738;20.612;2022-07-17T13:18:22;1.98;;;1.40;;
71312;SDS011;59104;44.738;20.612;2022-07-17T13:20:48;1.95;;;1.40;;
71312;SDS011;59104;44.738;20.612;2022-07-17T13:23:14;1.45;;;1.00;;
71312;SDS011;59104;44.738;20.612;2022-07-17T13:25:40;2.92;;;1.25;;
71312;SDS011;59104;44.738;20.612;2022-07-17T13:28:08;5.20;;;1.20;;
71312;SDS011;59104;44.738;20.612;2022-07-17T13:30:35;2.85;;;1.05;;
71312;SDS011;59104;44.738;20.612;2022-07-17T13:33:02;1.25;;;1.15;;
71312;SDS011;59104;44.738;20.612;2022-07-17T13:35:28;2.65;;;1.10;;
71312;SDS011;59104;44.738;20.612;2022-07-17T13:37:54;1.42;;;1.10;;
71312;SDS011;59104;44.738;20.612;2022-07-17T13:40:22;1.25;;;1.15;;
71312;SDS011;59104;44.738;20.612;2022-07-17T13:42:50;1.30;;;1.20;;
71312;SDS011;59104;44.738;20.612;2022-07-17T13:45:16;2.60;;;1.17;;
71312;SDS011;59104;44.738;20.612;2022-07-17T13:47:42;1.10;;;0.85;;
71312;SDS011;59104;44.738;20.612;2022-07-17T13:50:08;1.35;;;1.00;;
71312;SDS011;59104;44.738;20.612;2022-07-17T13:52:35;3.72;;;0.90;;
71312;SDS011;59104;44.738;20.612;2022-07-17T13:55:03;1.10;;;0.98;;
71312;SDS011;59104;44.738;20.612;2022-07-17T13:57:29;1.20;;;1.05;;
71312;SDS011;59104;44.738;20.612;2022-07-17T13:59:55;2.10;;;0.98;;
71312;SDS011;59104;44.738;20.612;2022-07-17T14:02:22;1.25;;;0.90;;
71312;SDS011;59104;44.738;20.612;2022-07-17T14:04:47;1.73;;;0.90;;
71312;SDS011;59104;44.738;20.612;2022-07-17T14:07:13;0.80;;;0.80;;
71312;SDS011;59104;44.738;20.612;2022-07-17T14:09:39;0.98;;;0.80;;
71312;SDS011;59104;44.738;20.612;2022-07-17T14:12:05;1.60;;;0.73;;
71312;SDS011;59104;44.738;20.612;2022-07-17T14:14:31;2.53;;;0.82;;
71312;SDS011;59104;44.738;20.612;2022-07-17T14:16:57;1.38;;;0.75;;
71312;SDS011;59104;44.738;20.612;2022-07-17T14:19:22;0.80;;;0.80;;
71312;SDS011;59104;44.738;20.612;2022-07-17T14:21:48;2.22;;;1.38;;
71312;SDS011;59104;44.738;20.612;2022-07-17T14:24:14;2.55;;;0.77;;
71312;SDS011;59104;44.738;20.612;2022-07-17T14:26:40;1.10;;;0.93;;
71312;SDS011;59104;44.738;20.612;2022-07-17T14:29:07;1.77;;;0.98;;
71312;SDS011;59104;44.738;20.612;2022-07-17T14:31:33;1.48;;;1.10;;
71312;SDS011;59104;44.738;20.612;2022-07-17T14:33:59;0.85;;;0.82;;
71312;SDS011;59104;44.738;20.612;2022-07-17T14:36:25;1.13;;;1.02;;
71312;SDS011;59104;44.738;20.612;2022-07-17T14:38:51;1.70;;;0.70;;
71312;SDS011;59104;44.738;20.612;2022-07-17T14:41:17;2.40;;;0.70;;
71312;SDS011;59104;44.738;20.612;2022-07-17T14:43:43;1.90;;;0.63;;
71312;SDS011;59104;44.738;20.612;2022-07-17T14:46:09;1.25;;;0.88;;
71312;SDS011;59104;44.738;20.612;2022-07-17T14:48:35;1.35;;;0.77;;
71312;SDS011;59104;44.738;20.612;2022-07-17T14:51:01;1.23;;;0.88;;
71312;SDS011;59104;44.738;20.612;2022-07-17T14:53:26;2.38;;;1.05;;